sensor_id;sensor_type;location;lat;lon;timestamp;pressure;altitude;pressure_sealevel;temperature;humidity
24306;BME280;12423;48.768;8.850;2022-09-09T00:00:24;96627.47;;;15.46;100.00
24306;BME280;12423;48.768;8.850;2022-09-09T00:02:28;96629.69;;;15.35;100.00
24306;BME280;12423;48.768;8.850;2022-09-09T00:04:34;96627.00;;;15.35;100.00
24306;BME280;12423;48.768;8.850;2022-09-09T00:06:53;96624.13;;;15.44;100.00
24306;BME280;12423;48.768;8.850;2022-09-09T00:09:15;96622.59;;;15.42;100.00
24306;BME280;12423;48.768;8.850;2022-09-09T00:11:24;96618.91;;;15.43;100.00
24306;BME280;12423;48.768;8.850;2022-09-09T00:13:41;96620.91;;;15.41;100.00
24306;BME280;12423;48.768;8.850;2022-09-09T00:22:32;96610.81;;;15.43;100.00
24306;BME280;12423;48.768;8.850;2022-09-09T00:25:10;96624.22;;;15.59;100.00
24306;BME280;12423;48.768;8.850;2022-09-09T00:27:31;96608.06;;;15.59;100.00
24306;BME280;12423;48.768;8.850;2022-09-09T00:29:52;96608.19;;;15.74;100.00
24306;BME280;12423;48.768;8.850;2022-09-09T00:31:57;96610.00;;;15.74;100.00
24306;BME280;12423;48.768;8.850;2022-09-09T00:34:16;96609.00;;;15.83;100.00
24306;BME280;12423;48.768;8.850;2022-09-09T00:36:23;96611.66;;;15.91;100.00
24306;BME280;12423;48.768;8.850;2022-09-09T00:38:40;96619.03;;;15.97;100.00
24306;BME280;12423;48.768;8.850;2022-09-09T00:40:50;96615.63;;;16.03;100.00
24306;BME280;12423;48.768;8.850;2022-09-09T00:50:01;96618.88;;;15.99;100.00
24306;BME280;12423;48.768;8.850;2022-09-09T00:52:22;96616.97;;;16.08;100.00
24306;BME280;12423;48.768;8.850;2022-09-09T00:57:12;96609.59;;;16.01;100.00
24306;BME280;12423;48.768;8.850;2022-09-09T00:59:35;96609.94;;;15.98;100.00
24306;BME280;12423;48.768;8.850;2022-09-09T01:01:43;96612.97;;;15.95;100.00
24306;BME280;12423;48.768;8.850;2022-09-09T01:03:55;96618.34;;;15.95;100.00
24306;BME280;12423;48.768;8.850;2022-09-09T01:10:53;96618.09;;;15.82;100.00
24306;BME280;12423;48.768;8.850;2022-09-09T01:13:03;96623.13;;;15.85;100.00
24306;BME280;12423;48.768;8.850;2022-09-09T01:15:26;96619.78;;;15.83;100.00
24306;BME280;12423;48.768;8.850;2022-09-09T01:17:36;96624.66;;;15.88;100.00
24306;BME280;12423;48.768;8.850;2022-09-09T01:24:16;96634.25;;;15.82;100.00
24306;BME280;12423;48.768;8.850;2022-09-09T01:26:48;96634.97;;;15.76;100.00
24306;BME280;12423;48.768;8.850;2022-09-09T01:28:58;96641.66;;;15.80;100.00
24306;BME280;12423;48.768;8.850;2022-09-09T01:31:07;96631.53;;;15.90;100.00
24306;BME280;12423;48.768;8.850;2022-09-09T01:33:17;96641.06;;;16.01;100.00
24306;BME280;12423;48.768;8.850;2022-09-09T01:37:23;96640.28;;;15.92;100.00
24306;BME280;12423;48.768;8.850;2022-09-09T01:39:24;96650.69;;;15.95;100.00
24306;BME280;12423;48.768;8.850;2022-09-09T01:41:33;96653.94;;;15.91;100.00
24306;BME280;12423;48.768;8.850;2022-09-09T01:43:37;96645.00;;;15.90;100.00
24306;BME280;12423;48.768;8.850;2022-09-09T01:45:39;96635.38;;;15.96;100.00
24306;BME280;12423;48.768;8.850;2022-09-09T01:47:43;96640.97;;;15.86;100.00
24306;BME280;12423;48.768;8.850;2022-09-09T01:49:53;96626.72;;;15.69;100.00
24306;BME280;12423;48.768;8.850;2022-09-09T01:51:59;96634.00;;;15.52;100.00
24306;BME280;12423;48.768;8.850;2022-09-09T01:54:06;96620.41;;;15.37;100.00
24306;BME280;12423;48.768;8.850;2022-09-09T01:56:18;96628.50;;;15.29;100.00
24306;BME280;12423;48.768;8.850;2022-09-09T02:00:35;96630.88;;;15.16;100.00
24306;BME280;12423;48.768;8.850;2022-09-09T02:03:00;96625.03;;;15.12;100.00
24306;BME280;12423;48.768;8.850;2022-09-09T02:05:40;96616.78;;;15.05;100.00
24306;BME280;12423;48.768;8.850;2022-09-09T02:07:57;96615.44;;;15.01;100.00
24306;BME280;12423;48.768;8.850;2022-09-09T02:10:12;96624.38;;;15.02;100.00
24306;BME280;12423;48.768;8.850;2022-09-09T02:12:25;96634.44;;;15.08;100.00
24306;BME280;12423;48.768;8.850;2022-09-09T02:14:35;96638.16;;;14.99;100.00
24306;BME280;12423;48.768;8.850;2022-09-09T02:16:48;96633.75;;;14.98;100.00
24306;BME280;12423;48.768;8.850;2022-09-09T02:18:55;96631.94;;;14.98;100.00
24306;BME280;12423;48.768;8.850;2022-09-09T02:21:12;96633.09;;;14.96;100.00
24306;BME280;12423;48.768;8.850;2022-09-09T02:23:14;96644.19;;;14.84;100.00
24306;BME280;12423;48.768;8.850;2022-09-09T02:25:20;96638.81;;;14.84;100.00
24306;BME280;12423;48.768;8.850;2022-09-09T02:27:24;96640.84;;;14.82;100.00
24306;BME280;12423;48.768;8.850;2022-09-09T02:29:34;96635.47;;;14.74;100.00
24306;BME280;12423;48.768;8.850;2022-09-09T02:31:38;96636.31;;;14.74;100.00
24306;BME280;12423;48.768;8.850;2022-09-09T02:33:52;96631.94;;;14.65;100.00
24306;BME280;12423;48.768;8.850;2022-09-09T02:35:55;96639.31;;;14.71;100.00
24306;BME280;12423;48.768;8.850;2022-09-09T02:38:07;96641.19;;;14.63;100.00
24306;BME280;12423;48.768;8.850;2022-09-09T02:40:12;96635.31;;;14.59;100.00
24306;BME280;12423;48.768;8.850;2022-09-09T02:42:18;96632.09;;;14.55;100.00
24306;BME280;12423;48.768;8.850;2022-09-09T02:44:19;96625.19;;;14.53;100.00
24306;BME280;12423;48.768;8.850;2022-09-09T02:46:40;96621.00;;;14.42;100.00
24306;BME280;12423;48.768;8.850;2022-09-09T02:49:00;96616.78;;;14.48;100.00
24306;BME280;12423;48.768;8.850;2022-09-09T02:51:16;96604.88;;;14.50;100.00
24306;BME280;12423;48.768;8.850;2022-09-09T02:53:28;96607.56;;;14.50;100.00
24306;BME280;12423;48.768;8.850;2022-09-09T02:55:45;96609.91;;;14.37;100.00
24306;BME280;12423;48.768;8.850;2022-09-09T02:57:47;96603.50;;;14.38;100.00
24306;BME280;12423;48.768;8.850;2022-09-09T02:59:51;96608.53;;;14.41;100.00
24306;BME280;12423;48.768;8.850;2022-09-09T03:01:53;96605.19;;;14.47;100.00
24306;BME280;12423;48.768;8.850;2022-09-09T03:03:54;96603.84;;;14.51;100.00
24306;BME280;12423;48.768;8.850;2022-09-09T03:05:55;96611.56;;;14.46;100.00
24306;BME280;12423;48.768;8.850;2022-09-09T03:07:58;96616.63;;;14.49;100.00
24306;BME280;12423;48.768;8.850;2022-09-09T03:09:59;96608.88;;;14.38;100.00
24306;BME280;12423;48.768;8.850;2022-09-09T03:12:02;96612.91;;;14.34;100.00
24306;BME280;12423;48.768;8.850;2022-09-09T03:14:06;96607.00;;;14.30;100.00
24306;BME280;12423;48.768;8.850;2022-09-09T03:16:07;96600.31;;;14.26;100.00
24306;BME280;12423;48.768;8.850;2022-09-09T03:18:14;96587.03;;;14.16;100.00
24306;BME280;12423;48.768;8.850;2022-09-09T03:20:15;96600.13;;;14.19;100.00
24306;BME280;12423;48.768;8.850;2022-09-09T03:22:16;96603.31;;;14.15;100.00
24306;BME280;12423;48.768;8.850;2022-09-09T03:24:19;96608.19;;;14.19;100.00
24306;BME280;12423;48.768;8.850;2022-09-09T03:26:20;96597.59;;;14.18;100.00
24306;BME280;12423;48.768;8.850;2022-09-09T03:28:22;96599.13;;;14.21;100.00
24306;BME280;12423;48.768;8.850;2022-09-09T03:30:26;96612.56;;;14.21;100.00
24306;BME280;12423;48.768;8.850;2022-09-09T03:32:29;96612.03;;;14.25;100.00
24306;BME280;12423;48.768;8.850;2022-09-09T03:34:31;96603.16;;;14.25;100.00
24306;BME280;12423;48.768;8.850;2022-09-09T03:36:33;96613.91;;;14.25;100.00
24306;BME280;12423;48.768;8.850;2022-09-09T03:38:34;96617.94;;;14.21;100.00
24306;BME280;12423;48.768;8.850;2022-09-09T03:40:35;96615.59;;;14.26;100.00
24306;BME280;12423;48.768;8.850;2022-09-09T03:42:37;96619.94;;;14.27;100.00
24306;BME280;12423;48.768;8.850;2022-09-09T03:44:39;96620.97;;;14.26;100.00
24306;BME280;12423;48.768;8.850;2022-09-09T03:46:40;96627.16;;;14.26;100.00
24306;BME280;12423;48.768;8.850;2022-09-09T03:48:41;96619.47;;;14.40;100.00
24306;BME280;12423;48.768;8.850;2022-09-09T03:50:50;96626.69;;;14.39;100.00
24306;BME280;12423;48.768;8.850;2022-09-09T03:52:52;96620.28;;;14.32;100.00
24306;BME280;12423;48.768;8.850;2022-09-09T03:54:56;96618.63;;;14.31;100.00
24306;BME280;12423;48.768;8.850;2022-09-09T03:56:57;96618.94;;;14.28;100.00
24306;BME280;12423;48.768;8.850;2022-09-09T03:58:59;96625.50;;;14.33;100.00
24306;BME280;12423;48.768;8.850;2022-09-09T04:01:05;96622.13;;;14.23;100.00
24306;BME280;12423;48.768;8.850;2022-09-09T04:03:09;96628.50;;;14.30;100.00
24306;BME280;12423;48.768;8.850;2022-09-09T04:05:10;96621.13;;;14.32;100.00
24306;BME280;12423;48.768;8.850;2022-09-09T04:07:13;96622.97;;;14.32;100.00
24306;BME280;12423;48.768;8.850;2022-09-09T04:09:15;96630.22;;;14.40;100.00
24306;BME280;12423;48.768;8.850;2022-09-09T04:11:16;96627.03;;;14.36;100.00
24306;BME280;12423;48.768;8.850;2022-09-09T04:13:19;96623.84;;;14.41;100.00
24306;BME280;12423;48.768;8.850;2022-09-09T04:15:21;96628.03;;;14.43;100.00
24306;BME280;12423;48.768;8.850;2022-09-09T04:17:22;96627.53;;;14.40;100.00
24306;BME280;12423;48.768;8.850;2022-09-09T04:19:23;96620.13;;;14.42;100.00
24306;BME280;12423;48.768;8.850;2022-09-09T04:21:25;96617.09;;;14.36;100.00
24306;BME280;12423;48.768;8.850;2022-09-09T04:23:27;96615.94;;;14.39;100.00
24306;BME280;12423;48.768;8.850;2022-09-09T04:25:32;96621.66;;;14.36;100.00
24306;BME280;12423;48.768;8.850;2022-09-09T04:27:35;96622.31;;;14.38;100.00
24306;BME280;12423;48.768;8.850;2022-09-09T04:29:36;96627.34;;;14.33;100.00
24306;BME280;12423;48.768;8.850;2022-09-09T04:31:37;96631.72;;;14.34;100.00
24306;BME280;12423;48.768;8.850;2022-09-09T04:33:42;96630.69;;;14.35;100.00
24306;BME280;12423;48.768;8.850;2022-09-09T04:35:46;96632.41;;;14.36;100.00
24306;BME280;12423;48.768;8.850;2022-09-09T04:37:49;96636.41;;;14.32;100.00
24306;BME280;12423;48.768;8.850;2022-09-09T04:39:51;96638.41;;;14.30;100.00
24306;BME280;12423;48.768;8.850;2022-09-09T04:41:52;96640.44;;;14.28;100.00
24306;BME280;12423;48.768;8.850;2022-09-09T04:43:55;96646.81;;;14.35;100.00
24306;BME280;12423;48.768;8.850;2022-09-09T04:45:57;96631.03;;;14.32;100.00
24306;BME280;12423;48.768;8.850;2022-09-09T04:48:00;96629.38;;;14.47;100.00
24306;BME280;12423;48.768;8.850;2022-09-09T04:50:01;96637.44;;;14.39;100.00
24306;BME280;12423;48.768;8.850;2022-09-09T04:52:03;96651.22;;;14.44;100.00
24306;BME280;12423;48.768;8.850;2022-09-09T04:54:06;96645.84;;;14.44;100.00
24306;BME280;12423;48.768;8.850;2022-09-09T04:56:09;96642.81;;;14.39;100.00
24306;BME280;12423;48.768;8.850;2022-09-09T04:58:15;96652.91;;;14.45;100.00
24306;BME280;12423;48.768;8.850;2022-09-09T05:00:17;96658.94;;;14.39;100.00
24306;BME280;12423;48.768;8.850;2022-09-09T05:02:18;96651.19;;;14.36;100.00
24306;BME280;12423;48.768;8.850;2022-09-09T05:04:19;96650.19;;;14.37;100.00
24306;BME280;12423;48.768;8.850;2022-09-09T05:06:22;96651.53;;;14.33;100.00
24306;BME280;12423;48.768;8.850;2022-09-09T05:08:25;96662.09;;;14.34;100.00
24306;BME280;12423;48.768;8.850;2022-09-09T05:10:26;96662.94;;;14.35;100.00
24306;BME280;12423;48.768;8.850;2022-09-09T05:12:27;96657.88;;;14.32;100.00
24306;BME280;12423;48.768;8.850;2022-09-09T05:14:28;96656.22;;;14.31;100.00
24306;BME280;12423;48.768;8.850;2022-09-09T05:16:30;96652.88;;;14.29;100.00
24306;BME280;12423;48.768;8.850;2022-09-09T05:18:31;96652.88;;;14.29;100.00
24306;BME280;12423;48.768;8.850;2022-09-09T05:20:34;96656.06;;;14.24;100.00
24306;BME280;12423;48.768;8.850;2022-09-09T05:22:36;96663.78;;;14.27;100.00
24306;BME280;12423;48.768;8.850;2022-09-09T05:24:38;96661.59;;;14.31;100.00
24306;BME280;12423;48.768;8.850;2022-09-09T05:26:39;96667.47;;;14.34;100.00
24306;BME280;12423;48.768;8.850;2022-09-09T05:28:40;96678.91;;;14.36;100.00
24306;BME280;12423;48.768;8.850;2022-09-09T05:30:41;96674.72;;;14.42;100.00
24306;BME280;12423;48.768;8.850;2022-09-09T05:32:42;96671.00;;;14.43;100.00
24306;BME280;12423;48.768;8.850;2022-09-09T05:34:45;96669.69;;;14.47;100.00
24306;BME280;12423;48.768;8.850;2022-09-09T05:36:47;96678.09;;;14.44;100.00
24306;BME280;12423;48.768;8.850;2022-09-09T05:38:49;96675.06;;;14.39;100.00
24306;BME280;12423;48.768;8.850;2022-09-09T05:40:51;96669.03;;;14.45;100.00
24306;BME280;12423;48.768;8.850;2022-09-09T05:42:53;96674.72;;;14.42;100.00
24306;BME280;12423;48.768;8.850;2022-09-09T05:44:54;96673.03;;;14.41;100.00
24306;BME280;12423;48.768;8.850;2022-09-09T05:46:56;96676.72;;;14.40;100.00
24306;BME280;12423;48.768;8.850;2022-09-09T05:48:57;96676.03;;;14.38;100.00
24306;BME280;12423;48.768;8.850;2022-09-09T05:51:07;96668.28;;;14.27;100.00
24306;BME280;12423;48.768;8.850;2022-09-09T05:53:09;96678.03;;;14.28;100.00
24306;BME280;12423;48.768;8.850;2022-09-09T05:55:11;96669.00;;;14.37;100.00
24306;BME280;12423;48.768;8.850;2022-09-09T05:57:12;96677.41;;;14.34;100.00
24306;BME280;12423;48.768;8.850;2022-09-09T05:59:13;96677.06;;;14.37;100.00
24306;BME280;12423;48.768;8.850;2022-09-09T06:01:18;96669.34;;;14.34;100.00
24306;BME280;12423;48.768;8.850;2022-09-09T06:03:19;96673.50;;;14.28;100.00
24306;BME280;12423;48.768;8.850;2022-09-09T06:05:25;96677.22;;;14.27;100.00
24306;BME280;12423;48.768;8.850;2022-09-09T06:07:28;96677.34;;;14.17;100.00
24306;BME280;12423;48.768;8.850;2022-09-09T06:09:29;96675.34;;;14.19;100.00
24306;BME280;12423;48.768;8.850;2022-09-09T06:11:32;96678.34;;;14.16;100.00
24306;BME280;12423;48.768;8.850;2022-09-09T06:13:34;96679.34;;;14.15;100.00
24306;BME280;12423;48.768;8.850;2022-09-09T06:15:37;96681.34;;;14.13;100.00
24306;BME280;12423;48.768;8.850;2022-09-09T06:17:38;96684.72;;;14.15;100.00
24306;BME280;12423;48.768;8.850;2022-09-09T06:19:39;96683.72;;;14.16;100.00
24306;BME280;12423;48.768;8.850;2022-09-09T06:21:41;96682.88;;;14.16;100.00
24306;BME280;12423;48.768;8.850;2022-09-09T06:23:46;96674.00;;;14.24;100.00
24306;BME280;12423;48.768;8.850;2022-09-09T06:25:48;96683.59;;;14.26;100.00
24306;BME280;12423;48.768;8.850;2022-09-09T06:27:49;96683.78;;;14.41;100.00
24306;BME280;12423;48.768;8.850;2022-09-09T06:29:50;96678.59;;;14.48;100.00
24306;BME280;12423;48.768;8.850;2022-09-09T06:31:51;96674.22;;;14.55;100.00
24306;BME280;12423;48.768;8.850;2022-09-09T06:33:58;96683.31;;;14.54;100.00
24306;BME280;12423;48.768;8.850;2022-09-09T06:36:00;96681.81;;;14.60;100.00
24306;BME280;12423;48.768;8.850;2022-09-09T06:38:02;96688.06;;;14.60;100.00
24306;BME280;12423;48.768;8.850;2022-09-09T06:40:05;96683.34;;;14.62;100.00
24306;BME280;12423;48.768;8.850;2022-09-09T06:42:06;96674.44;;;14.70;100.00
24306;BME280;12423;48.768;8.850;2022-09-09T06:44:19;96676.78;;;14.73;100.00
24306;BME280;12423;48.768;8.850;2022-09-09T06:46:26;96681.84;;;14.84;100.00
24306;BME280;12423;48.768;8.850;2022-09-09T06:48:29;96683.22;;;14.88;100.00
24306;BME280;12423;48.768;8.850;2022-09-09T06:50:30;96686.56;;;14.99;100.00
24306;BME280;12423;48.768;8.850;2022-09-09T06:52:31;96683.38;;;15.03;100.00
24306;BME280;12423;48.768;8.850;2022-09-09T06:54:33;96682.66;;;15.09;100.00
24306;BME280;12423;48.768;8.850;2022-09-09T06:56:39;96680.13;;;15.24;100.00
24306;BME280;12423;48.768;8.850;2022-09-09T06:58:50;96686.19;;;15.43;100.00
24306;BME280;12423;48.768;8.850;2022-09-09T07:01:05;96681.91;;;15.65;100.00
24306;BME280;12423;48.768;8.850;2022-09-09T07:03:09;96677.16;;;15.75;100.00
24306;BME280;12423;48.768;8.850;2022-09-09T07:05:11;96676.00;;;15.86;100.00
24306;BME280;12423;48.768;8.850;2022-09-09T07:07:13;96677.13;;;15.92;100.00
24306;BME280;12423;48.768;8.850;2022-09-09T07:09:16;96684.00;;;16.02;100.00
24306;BME280;12423;48.768;8.850;2022-09-09T07:11:21;96691.44;;;16.00;100.00
24306;BME280;12423;48.768;8.850;2022-09-09T07:13:26;96685.66;;;16.03;100.00
24306;BME280;12423;48.768;8.850;2022-09-09T07:15:29;96692.50;;;16.23;100.00
24306;BME280;12423;48.768;8.850;2022-09-09T07:17:30;96685.19;;;16.31;100.00
24306;BME280;12423;48.768;8.850;2022-09-09T07:19:32;96684.69;;;16.36;100.00
24306;BME280;12423;48.768;8.850;2022-09-09T07:21:33;96685.75;;;16.50;100.00
24306;BME280;12423;48.768;8.850;2022-09-09T07:23:34;96686.13;;;16.47;100.00
24306;BME280;12423;48.768;8.850;2022-09-09T07:25:44;96693.50;;;16.53;100.00
24306;BME280;12423;48.768;8.850;2022-09-09T07:27:46;96685.75;;;16.50;100.00
24306;BME280;12423;48.768;8.850;2022-09-09T07:29:47;96675.97;;;16.57;100.00
24306;BME280;12423;48.768;8.850;2022-09-09T07:31:48;96676.72;;;16.66;100.00
24306;BME280;12423;48.768;8.850;2022-09-09T07:33:54;96687.69;;;16.64;100.00
24306;BME280;12423;48.768;8.850;2022-09-09T07:36:02;96698.66;;;16.63;100.00
24306;BME280;12423;48.768;8.850;2022-09-09T07:38:04;96690.50;;;16.71;100.00
24306;BME280;12423;48.768;8.850;2022-09-09T07:40:07;96690.94;;;16.83;100.00
24306;BME280;12423;48.768;8.850;2022-09-09T07:42:09;96687.59;;;16.81;100.00
24306;BME280;12423;48.768;8.850;2022-09-09T07:44:14;96691.28;;;16.88;100.00
24306;BME280;12423;48.768;8.850;2022-09-09T07:46:19;96692.84;;;16.74;100.00
24306;BME280;12423;48.768;8.850;2022-09-09T07:48:21;96691.56;;;16.70;100.00
24306;BME280;12423;48.768;8.850;2022-09-09T07:50:23;96689.75;;;16.62;100.00
24306;BME280;12423;48.768;8.850;2022-09-09T07:52:24;96684.94;;;16.72;100.00
24306;BME280;12423;48.768;8.850;2022-09-09T07:54:30;96684.22;;;16.79;100.00
24306;BME280;12423;48.768;8.850;2022-09-09T07:56:32;96686.56;;;16.82;100.00
24306;BME280;12423;48.768;8.850;2022-09-09T07:58:33;96686.53;;;16.90;100.00
24306;BME280;12423;48.768;8.850;2022-09-09T08:00:34;96693.00;;;17.04;100.00
24306;BME280;12423;48.768;8.850;2022-09-09T08:02:35;96691.28;;;17.11;100.00
24306;BME280;12423;48.768;8.850;2022-09-09T08:04:36;96699.09;;;17.21;100.00
24306;BME280;12423;48.768;8.850;2022-09-09T08:06:39;96706.03;;;17.38;100.00
24306;BME280;12423;48.768;8.850;2022-09-09T08:08:42;96719.34;;;17.40;100.00
24306;BME280;12423;48.768;8.850;2022-09-09T08:10:44;96718.44;;;17.47;100.00
24306;BME280;12423;48.768;8.850;2022-09-09T08:12:45;96718.63;;;17.46;100.00
24306;BME280;12423;48.768;8.850;2022-09-09T08:14:46;96714.13;;;17.38;100.00
24306;BME280;12423;48.768;8.850;2022-09-09T08:16:48;96704.34;;;17.37;100.00
24306;BME280;12423;48.768;8.850;2022-09-09T08:18:53;96704.25;;;17.45;100.00
24306;BME280;12423;48.768;8.850;2022-09-09T08:20:56;96698.78;;;17.54;100.00
24306;BME280;12423;48.768;8.850;2022-09-09T08:22:57;96685.78;;;17.72;100.00
24306;BME280;12423;48.768;8.850;2022-09-09T08:24:58;96680.94;;;17.67;100.00
24306;BME280;12423;48.768;8.850;2022-09-09T08:26:59;96684.75;;;17.88;100.00
24306;BME280;12423;48.768;8.850;2022-09-09T08:29:01;96696.44;;;18.03;100.00
24306;BME280;12423;48.768;8.850;2022-09-09T08:31:14;96697.91;;;18.06;100.00
24306;BME280;12423;48.768;8.850;2022-09-09T08:33:16;96699.19;;;18.25;100.00
24306;BME280;12423;48.768;8.850;2022-09-09T08:35:19;96693.81;;;18.10;100.00
24306;BME280;12423;48.768;8.850;2022-09-09T08:37:22;96702.09;;;18.23;100.00
24306;BME280;12423;48.768;8.850;2022-09-09T08:39:23;96698.22;;;18.33;100.00
24306;BME280;12423;48.768;8.850;2022-09-09T08:41:52;96697.03;;;18.35;100.00
24306;BME280;12423;48.768;8.850;2022-09-09T08:44:20;96714.06;;;18.36;100.00
24306;BME280;12423;48.768;8.850;2022-09-09T08:47:15;96711.47;;;18.28;100.00
24306;BME280;12423;48.768;8.850;2022-09-09T08:49:01;96714.19;;;18.28;100.00
24306;BME280;12423;48.768;8.850;2022-09-09T08:51:06;96714.38;;;18.26;100.00
24306;BME280;12423;48.768;8.850;2022-09-09T08:53:21;96710.03;;;18.10;100.00
24306;BME280;12423;48.768;8.850;2022-09-09T08:55:51;96715.63;;;18.09;100.00
24306;BME280;12423;48.768;8.850;2022-09-09T08:58:04;96712.91;;;18.23;100.00
24306;BME280;12423;48.768;8.850;2022-09-09T09:00:10;96713.72;;;18.39;100.00
24306;BME280;12423;48.768;8.850;2022-09-09T09:02:21;96718.75;;;18.42;100.00
24306;BME280;12423;48.768;8.850;2022-09-09T09:06:46;96719.66;;;18.49;100.00
24306;BME280;12423;48.768;8.850;2022-09-09T09:09:01;96710.84;;;18.62;100.00
24306;BME280;12423;48.768;8.850;2022-09-09T09:11:05;96707.72;;;18.80;100.00
24306;BME280;12423;48.768;8.850;2022-09-09T09:15:41;96702.69;;;19.42;100.00
24306;BME280;12423;48.768;8.850;2022-09-09T09:17:43;96706.19;;;19.36;100.00
24306;BME280;12423;48.768;8.850;2022-09-09T09:19:48;96697.69;;;19.39;100.00
24306;BME280;12423;48.768;8.850;2022-09-09T09:21:54;96691.47;;;19.45;100.00
24306;BME280;12423;48.768;8.850;2022-09-09T09:23:59;96694.06;;;19.31;100.00
24306;BME280;12423;48.768;8.850;2022-09-09T09:26:07;96686.94;;;19.52;100.00
24306;BME280;12423;48.768;8.850;2022-09-09T09:28:15;96681.69;;;19.44;100.00
24306;BME280;12423;48.768;8.850;2022-09-09T09:30:26;96683.69;;;19.63;100.00
24306;BME280;12423;48.768;8.850;2022-09-09T09:32:33;96679.88;;;19.58;100.00
24306;BME280;12423;48.768;8.850;2022-09-09T09:34:35;96684.28;;;19.87;100.00
24306;BME280;12423;48.768;8.850;2022-09-09T09:36:42;96674.25;;;20.29;99.64
24306;BME280;12423;48.768;8.850;2022-09-09T09:38:58;96673.31;;;20.57;94.66
24306;BME280;12423;48.768;8.850;2022-09-09T09:41:01;96678.50;;;20.45;90.57
24306;BME280;12423;48.768;8.850;2022-09-09T09:43:04;96677.16;;;20.69;92.75
24306;BME280;12423;48.768;8.850;2022-09-09T09:45:44;96675.50;;;20.88;89.70
24306;BME280;12423;48.768;8.850;2022-09-09T09:47:58;96683.66;;;20.88;89.23
24306;BME280;12423;48.768;8.850;2022-09-09T09:50:00;96672.44;;;20.36;87.66
24306;BME280;12423;48.768;8.850;2022-09-09T09:52:06;96670.53;;;19.88;91.90
24306;BME280;12423;48.768;8.850;2022-09-09T09:54:29;96679.44;;;19.54;91.29
24306;BME280;12423;48.768;8.850;2022-09-09T09:56:35;96672.41;;;19.31;92.82
24306;BME280;12423;48.768;8.850;2022-09-09T10:00:53;96655.84;;;19.48;93.41
24306;BME280;12423;48.768;8.850;2022-09-09T10:02:59;96671.41;;;19.11;94.82
24306;BME280;12423;48.768;8.850;2022-09-09T10:05:05;96668.72;;;19.11;95.20
24306;BME280;12423;48.768;8.850;2022-09-09T10:07:18;96669.88;;;19.02;93.62
24306;BME280;12423;48.768;8.850;2022-09-09T10:09:30;96669.47;;;19.05;94.04
24306;BME280;12423;48.768;8.850;2022-09-09T10:11:44;96679.84;;;19.01;95.64
24306;BME280;12423;48.768;8.850;2022-09-09T10:14:03;96689.50;;;18.89;96.83
24306;BME280;12423;48.768;8.850;2022-09-09T10:20:46;96680.31;;;19.05;94.59
24306;BME280;12423;48.768;8.850;2022-09-09T10:25:54;96668.63;;;19.54;94.59
24306;BME280;12423;48.768;8.850;2022-09-09T10:30:19;96662.63;;;19.30;93.73
24306;BME280;12423;48.768;8.850;2022-09-09T10:32:36;96664.75;;;19.42;91.67
24306;BME280;12423;48.768;8.850;2022-09-09T10:34:55;96666.19;;;19.66;92.51
24306;BME280;12423;48.768;8.850;2022-09-09T10:36:57;96668.75;;;19.74;90.11
24306;BME280;12423;48.768;8.850;2022-09-09T10:39:03;96665.94;;;19.89;88.40
24306;BME280;12423;48.768;8.850;2022-09-09T10:41:13;96678.59;;;19.75;88.02
24306;BME280;12423;48.768;8.850;2022-09-09T10:45:47;96704.50;;;19.34;81.35
24306;BME280;12423;48.768;8.850;2022-09-09T10:55:13;96722.31;;;18.13;84.12
24306;BME280;12423;48.768;8.850;2022-09-09T10:57:27;96734.34;;;17.95;82.66
24306;BME280;12423;48.768;8.850;2022-09-09T10:59:33;96720.97;;;17.64;90.35
24306;BME280;12423;48.768;8.850;2022-09-09T11:03:47;96745.16;;;17.42;100.00
24306;BME280;12423;48.768;8.850;2022-09-09T11:05:57;96752.97;;;17.52;100.00
24306;BME280;12423;48.768;8.850;2022-09-09T11:08:12;96765.06;;;17.41;100.00
24306;BME280;12423;48.768;8.850;2022-09-09T11:10:25;96768.06;;;17.23;100.00
24306;BME280;12423;48.768;8.850;2022-09-09T11:12:33;96768.44;;;16.97;100.00
24306;BME280;12423;48.768;8.850;2022-09-09T11:14:50;96766.19;;;16.69;100.00
24306;BME280;12423;48.768;8.850;2022-09-09T11:17:00;96773.94;;;16.72;100.00
24306;BME280;12423;48.768;8.850;2022-09-09T11:19:13;96777.00;;;16.69;100.00
24306;BME280;12423;48.768;8.850;2022-09-09T11:21:23;96772.41;;;16.47;100.00
24306;BME280;12423;48.768;8.850;2022-09-09T11:23:38;96764.53;;;16.37;100.00
24306;BME280;12423;48.768;8.850;2022-09-09T11:26:02;96761.59;;;16.55;100.00
24306;BME280;12423;48.768;8.850;2022-09-09T11:28:35;96752.81;;;16.53;100.00
24306;BME280;12423;48.768;8.850;2022-09-09T11:31:04;96744.69;;;16.84;100.00
24306;BME280;12423;48.768;8.850;2022-09-09T11:35:30;96735.16;;;18.26;100.00
24306;BME280;12423;48.768;8.850;2022-09-09T11:41:52;96710.56;;;20.83;100.00
24306;BME280;12423;48.768;8.850;2022-09-09T11:43:54;96709.59;;;21.71;100.00
24306;BME280;12423;48.768;8.850;2022-09-09T11:45:57;96709.59;;;23.02;92.49
24306;BME280;12423;48.768;8.850;2022-09-09T11:48:00;96711.66;;;21.96;83.81
24306;BME280;12423;48.768;8.850;2022-09-09T11:50:28;96708.09;;;21.08;89.77
24306;BME280;12423;48.768;8.850;2022-09-09T11:52:41;96694.53;;;20.33;95.32
24306;BME280;12423;48.768;8.850;2022-09-09T11:54:48;96690.09;;;20.25;100.00
24306;BME280;12423;48.768;8.850;2022-09-09T11:56:49;96684.81;;;20.11;99.48
24306;BME280;12423;48.768;8.850;2022-09-09T11:59:20;96686.84;;;21.19;91.76
24306;BME280;12423;48.768;8.850;2022-09-09T12:03:47;96681.59;;;26.36;68.02
24306;BME280;12423;48.768;8.850;2022-09-09T12:05:50;96679.91;;;27.16;61.15
24306;BME280;12423;48.768;8.850;2022-09-09T12:07:56;96675.16;;;27.29;60.93
24306;BME280;12423;48.768;8.850;2022-09-09T12:10:03;96688.88;;;25.83;56.31